sensor_id;sensor_type;location;lat;lon;timestamp;P1;durP1;ratioP1;P2;durP2;ratioP2
53521;SDS011;39398;48.382;9.802;2022-08-18T00:00:22;19.30;;;14.15;;
53521;SDS011;39398;48.382;9.802;2022-08-18T00:01:23;18.95;;;16.17;;
53521;SDS011;39398;48.382;9.802;2022-08-18T00:02:26;15.07;;;13.25;;
53521;SDS011;39398;48.382;9.802;2022-08-18T00:03:30;15.18;;;13.63;;
53521;SDS011;39398;48.382;9.802;2022-08-18T00:04:53;18.33;;;14.27;;
53521;SDS011;39398;48.382;9.802;2022-08-18T00:05:57;21.00;;;15.43;;
53521;SDS011;39398;48.382;9.802;2022-08-18T00:06:59;20.45;;;15.32;;
53521;SDS011;39398;48.382;9.802;2022-08-18T00:08:00;16.38;;;14.50;;
53521;SDS011;39398;48.382;9.802;2022-08-18T00:09:03;19.55;;;14.25;;
53521;SDS011;39398;48.382;9.802;2022-08-18T00:10:07;22.10;;;16.00;;
53521;SDS011;39398;48.382;9.802;2022-08-18T00:11:19;21.35;;;15.93;;
53521;SDS011;39398;48.382;9.802;2022-08-18T00:12:23;19.25;;;15.85;;
53521;SDS011;39398;48.382;9.802;2022-08-18T00:13:26;20.60;;;15.68;;
53521;SDS011;39398;48.382;9.802;2022-08-18T00:14:28;21.60;;;17.23;;
53521;SDS011;39398;48.382;9.802;2022-08-18T00:15:30;22.02;;;17.67;;
53521;SDS011;39398;48.382;9.802;2022-08-18T00:16:41;22.73;;;16.98;;
53521;SDS011;39398;48.382;9.802;2022-08-18T00:17:43;22.58;;;16.95;;
53521;SDS011;39398;48.382;9.802;2022-08-18T00:18:45;19.42;;;15.80;;
53521;SDS011;39398;48.382;9.802;2022-08-18T00:19:46;18.98;;;16.00;;
53521;SDS011;39398;48.382;9.802;2022-08-18T00:20:48;19.70;;;15.88;;
53521;SDS011;39398;48.382;9.802;2022-08-18T00:21:50;20.48;;;15.63;;
53521;SDS011;39398;48.382;9.802;2022-08-18T00:22:52;19.67;;;14.45;;
53521;SDS011;39398;48.382;9.802;2022-08-18T00:23:53;16.25;;;14.40;;
53521;SDS011;39398;48.382;9.802;2022-08-18T00:24:55;18.73;;;14.40;;
53521;SDS011;39398;48.382;9.802;2022-08-18T00:25:57;17.20;;;15.02;;
53521;SDS011;39398;48.382;9.802;2022-08-18T00:26:59;17.75;;;15.32;;
53521;SDS011;39398;48.382;9.802;2022-08-18T00:28:03;18.73;;;14.45;;
53521;SDS011;39398;48.382;9.802;2022-08-18T00:29:05;17.67;;;13.77;;
53521;SDS011;39398;48.382;9.802;2022-08-18T00:30:07;15.23;;;13.60;;
53521;SDS011;39398;48.382;9.802;2022-08-18T00:31:12;15.93;;;14.15;;
53521;SDS011;39398;48.382;9.802;2022-08-18T00:32:14;19.58;;;14.80;;
53521;SDS011;39398;48.382;9.802;2022-08-18T00:33:17;17.65;;;14.77;;
53521;SDS011;39398;48.382;9.802;2022-08-18T00:34:18;19.75;;;15.45;;
53521;SDS011;39398;48.382;9.802;2022-08-18T00:35:21;20.55;;;16.25;;
53521;SDS011;39398;48.382;9.802;2022-08-18T00:36:29;21.73;;;15.60;;
53521;SDS011;39398;48.382;9.802;2022-08-18T00:37:30;21.05;;;17.05;;
53521;SDS011;39398;48.382;9.802;2022-08-18T00:38:31;20.42;;;16.02;;
53521;SDS011;39398;48.382;9.802;2022-08-18T00:39:33;20.27;;;16.05;;
53521;SDS011;39398;48.382;9.802;2022-08-18T00:40:40;18.10;;;13.95;;
53521;SDS011;39398;48.382;9.802;2022-08-18T00:41:43;19.38;;;15.02;;
53521;SDS011;39398;48.382;9.802;2022-08-18T00:42:46;16.85;;;14.15;;
53521;SDS011;39398;48.382;9.802;2022-08-18T00:43:52;17.98;;;14.10;;
53521;SDS011;39398;48.382;9.802;2022-08-18T00:44:55;18.23;;;14.60;;
53521;SDS011;39398;48.382;9.802;2022-08-18T00:45:58;25.80;;;16.02;;
53521;SDS011;39398;48.382;9.802;2022-08-18T00:47:02;25.23;;;17.58;;
53521;SDS011;39398;48.382;9.802;2022-08-18T00:48:04;214.35;;;23.27;;
53521;SDS011;39398;48.382;9.802;2022-08-18T00:49:06;681.95;;;40.92;;
53521;SDS011;39398;48.382;9.802;2022-08-18T00:50:09;643.83;;;38.35;;
53521;SDS011;39398;48.382;9.802;2022-08-18T00:51:16;514.95;;;34.55;;
53521;SDS011;39398;48.382;9.802;2022-08-18T00:52:22;28.05;;;17.38;;
53521;SDS011;39398;48.382;9.802;2022-08-18T00:53:26;20.25;;;16.33;;
53521;SDS011;39398;48.382;9.802;2022-08-18T00:54:30;22.88;;;16.17;;
53521;SDS011;39398;48.382;9.802;2022-08-18T00:55:35;29.02;;;17.70;;
53521;SDS011;39398;48.382;9.802;2022-08-18T00:56:49;32.67;;;19.48;;
53521;SDS011;39398;48.382;9.802;2022-08-18T00:57:54;164.80;;;24.52;;
53521;SDS011;39398;48.382;9.802;2022-08-18T00:59:02;113.18;;;22.88;;
53521;SDS011;39398;48.382;9.802;2022-08-18T01:00:08;31.05;;;20.92;;
53521;SDS011;39398;48.382;9.802;2022-08-18T01:01:10;85.00;;;23.77;;
53521;SDS011;39398;48.382;9.802;2022-08-18T01:02:14;97.20;;;21.70;;
53521;SDS011;39398;48.382;9.802;2022-08-18T01:03:20;271.88;;;27.08;;
53521;SDS011;39398;48.382;9.802;2022-08-18T01:04:26;500.67;;;33.20;;
53521;SDS011;39398;48.382;9.802;2022-08-18T01:05:32;61.63;;;18.08;;
53521;SDS011;39398;48.382;9.802;2022-08-18T01:06:37;48.13;;;20.50;;
53521;SDS011;39398;48.382;9.802;2022-08-18T01:07:42;29.73;;;18.33;;
53521;SDS011;39398;48.382;9.802;2022-08-18T01:08:45;22.55;;;17.20;;
53521;SDS011;39398;48.382;9.802;2022-08-18T01:09:47;26.02;;;17.63;;
53521;SDS011;39398;48.382;9.802;2022-08-18T01:10:49;23.17;;;17.55;;
53521;SDS011;39398;48.382;9.802;2022-08-18T01:11:51;24.27;;;18.77;;
53521;SDS011;39398;48.382;9.802;2022-08-18T01:12:53;23.10;;;16.98;;
53521;SDS011;39398;48.382;9.802;2022-08-18T01:13:57;25.48;;;16.90;;
53521;SDS011;39398;48.382;9.802;2022-08-18T01:15:00;19.83;;;16.15;;
53521;SDS011;39398;48.382;9.802;2022-08-18T01:16:02;17.15;;;15.35;;
53521;SDS011;39398;48.382;9.802;2022-08-18T01:17:04;20.88;;;16.50;;
53521;SDS011;39398;48.382;9.802;2022-08-18T01:18:08;23.65;;;17.00;;
53521;SDS011;39398;48.382;9.802;2022-08-18T01:19:11;24.40;;;16.63;;
53521;SDS011;39398;48.382;9.802;2022-08-18T01:20:14;24.20;;;18.23;;
53521;SDS011;39398;48.382;9.802;2022-08-18T01:21:22;23.95;;;18.13;;
53521;SDS011;39398;48.382;9.802;2022-08-18T01:22:32;21.67;;;17.30;;
53521;SDS011;39398;48.382;9.802;2022-08-18T01:23:39;19.67;;;16.02;;
53521;SDS011;39398;48.382;9.802;2022-08-18T01:24:42;22.95;;;16.52;;
53521;SDS011;39398;48.382;9.802;2022-08-18T01:25:43;22.70;;;16.55;;
53521;SDS011;39398;48.382;9.802;2022-08-18T01:26:46;22.45;;;16.85;;
53521;SDS011;39398;48.382;9.802;2022-08-18T01:27:49;20.65;;;16.55;;
53521;SDS011;39398;48.382;9.802;2022-08-18T01:28:51;22.45;;;17.23;;
53521;SDS011;39398;48.382;9.802;2022-08-18T01:29:53;19.27;;;17.20;;
53521;SDS011;39398;48.382;9.802;2022-08-18T01:30:55;24.30;;;16.92;;
53521;SDS011;39398;48.382;9.802;2022-08-18T01:31:58;23.48;;;16.60;;
53521;SDS011;39398;48.382;9.802;2022-08-18T01:32:59;19.77;;;16.75;;
53521;SDS011;39398;48.382;9.802;2022-08-18T01:34:02;18.88;;;15.27;;
53521;SDS011;39398;48.382;9.802;2022-08-18T01:35:05;18.25;;;15.02;;
53521;SDS011;39398;48.382;9.802;2022-08-18T01:36:10;16.35;;;13.75;;
53521;SDS011;39398;48.382;9.802;2022-08-18T01:37:14;17.92;;;15.40;;
53521;SDS011;39398;48.382;9.802;2022-08-18T01:38:18;17.08;;;15.30;;
53521;SDS011;39398;48.382;9.802;2022-08-18T01:39:23;17.42;;;15.18;;
53521;SDS011;39398;48.382;9.802;2022-08-18T01:40:45;20.05;;;16.58;;
53521;SDS011;39398;48.382;9.802;2022-08-18T01:42:07;20.25;;;16.95;;
53521;SDS011;39398;48.382;9.802;2022-08-18T01:43:09;16.23;;;14.10;;
53521;SDS011;39398;48.382;9.802;2022-08-18T01:44:11;21.63;;;15.80;;
53521;SDS011;39398;48.382;9.802;2022-08-18T01:45:13;15.65;;;13.90;;
53521;SDS011;39398;48.382;9.802;2022-08-18T01:46:16;11.05;;;9.95;;
53521;SDS011;39398;48.382;9.802;2022-08-18T01:47:18;16.67;;;12.82;;
53521;SDS011;39398;48.382;9.802;2022-08-18T01:48:20;19.15;;;12.15;;
53521;SDS011;39398;48.382;9.802;2022-08-18T01:49:21;12.80;;;10.38;;
53521;SDS011;39398;48.382;9.802;2022-08-18T01:50:23;13.15;;;10.70;;
53521;SDS011;39398;48.382;9.802;2022-08-18T01:51:26;13.20;;;10.52;;
53521;SDS011;39398;48.382;9.802;2022-08-18T01:52:41;13.68;;;10.88;;
53521;SDS011;39398;48.382;9.802;2022-08-18T01:53:42;11.88;;;10.65;;
53521;SDS011;39398;48.382;9.802;2022-08-18T01:54:45;10.68;;;9.57;;
53521;SDS011;39398;48.382;9.802;2022-08-18T01:55:49;11.38;;;10.18;;
53521;SDS011;39398;48.382;9.802;2022-08-18T01:56:50;16.58;;;14.02;;
53521;SDS011;39398;48.382;9.802;2022-08-18T01:57:52;16.42;;;14.68;;
53521;SDS011;39398;48.382;9.802;2022-08-18T01:58:54;20.42;;;16.80;;
53521;SDS011;39398;48.382;9.802;2022-08-18T01:59:56;57.45;;;17.30;;
53521;SDS011;39398;48.382;9.802;2022-08-18T02:00:58;266.80;;;23.00;;
53521;SDS011;39398;48.382;9.802;2022-08-18T02:02:00;390.40;;;26.33;;
53521;SDS011;39398;48.382;9.802;2022-08-18T02:03:02;214.10;;;18.90;;
53521;SDS011;39398;48.382;9.802;2022-08-18T02:04:06;246.23;;;21.65;;
53521;SDS011;39398;48.382;9.802;2022-08-18T02:05:30;89.88;;;16.48;;
53521;SDS011;39398;48.382;9.802;2022-08-18T02:06:34;101.35;;;14.98;;
53521;SDS011;39398;48.382;9.802;2022-08-18T02:07:35;77.78;;;15.68;;
53521;SDS011;39398;48.382;9.802;2022-08-18T02:08:38;60.72;;;16.40;;
53521;SDS011;39398;48.382;9.802;2022-08-18T02:09:43;133.40;;;19.67;;
53521;SDS011;39398;48.382;9.802;2022-08-18T02:10:46;36.03;;;15.10;;
53521;SDS011;39398;48.382;9.802;2022-08-18T02:11:48;23.85;;;14.80;;
53521;SDS011;39398;48.382;9.802;2022-08-18T02:12:53;41.10;;;16.25;;
53521;SDS011;39398;48.382;9.802;2022-08-18T02:13:54;19.13;;;16.30;;
53521;SDS011;39398;48.382;9.802;2022-08-18T02:14:56;26.20;;;15.73;;
53521;SDS011;39398;48.382;9.802;2022-08-18T02:15:57;21.70;;;16.42;;
53521;SDS011;39398;48.382;9.802;2022-08-18T02:17:00;19.60;;;14.93;;
53521;SDS011;39398;48.382;9.802;2022-08-18T02:18:03;18.83;;;15.63;;
53521;SDS011;39398;48.382;9.802;2022-08-18T02:19:05;27.80;;;18.20;;
53521;SDS011;39398;48.382;9.802;2022-08-18T02:20:07;38.45;;;19.30;;
53521;SDS011;39398;48.382;9.802;2022-08-18T02:21:11;135.77;;;23.67;;
53521;SDS011;39398;48.382;9.802;2022-08-18T02:22:16;180.48;;;27.55;;
53521;SDS011;39398;48.382;9.802;2022-08-18T02:23:19;265.02;;;29.25;;
53521;SDS011;39398;48.382;9.802;2022-08-18T02:24:21;246.05;;;29.05;;
53521;SDS011;39398;48.382;9.802;2022-08-18T02:25:23;327.23;;;29.52;;
53521;SDS011;39398;48.382;9.802;2022-08-18T02:26:25;233.35;;;27.42;;
53521;SDS011;39398;48.382;9.802;2022-08-18T02:27:27;308.85;;;32.00;;
53521;SDS011;39398;48.382;9.802;2022-08-18T02:28:30;301.88;;;31.27;;
53521;SDS011;39398;48.382;9.802;2022-08-18T02:29:32;326.48;;;35.40;;
53521;SDS011;39398;48.382;9.802;2022-08-18T02:30:34;186.60;;;26.77;;
53521;SDS011;39398;48.382;9.802;2022-08-18T02:31:36;263.33;;;31.77;;
53521;SDS011;39398;48.382;9.802;2022-08-18T02:32:38;269.60;;;32.53;;
53521;SDS011;39398;48.382;9.802;2022-08-18T02:33:40;247.77;;;32.63;;
53521;SDS011;39398;48.382;9.802;2022-08-18T02:34:52;198.48;;;30.73;;
53521;SDS011;39398;48.382;9.802;2022-08-18T02:35:54;157.40;;;30.70;;
53521;SDS011;39398;48.382;9.802;2022-08-18T02:36:57;125.70;;;28.40;;
53521;SDS011;39398;48.382;9.802;2022-08-18T02:37:59;117.35;;;29.30;;
53521;SDS011;39398;48.382;9.802;2022-08-18T02:39:03;50.90;;;26.95;;
53521;SDS011;39398;48.382;9.802;2022-08-18T02:40:05;53.90;;;27.67;;
53521;SDS011;39398;48.382;9.802;2022-08-18T02:41:09;41.08;;;26.45;;
53521;SDS011;39398;48.382;9.802;2022-08-18T02:42:13;31.80;;;24.25;;
53521;SDS011;39398;48.382;9.802;2022-08-18T02:43:15;33.45;;;25.63;;
53521;SDS011;39398;48.382;9.802;2022-08-18T02:44:16;36.92;;;26.60;;
53521;SDS011;39398;48.382;9.802;2022-08-18T02:45:18;32.45;;;25.60;;
53521;SDS011;39398;48.382;9.802;2022-08-18T02:46:20;28.67;;;22.80;;
53521;SDS011;39398;48.382;9.802;2022-08-18T02:47:23;29.42;;;22.98;;
53521;SDS011;39398;48.382;9.802;2022-08-18T02:48:29;26.33;;;21.08;;
53521;SDS011;39398;48.382;9.802;2022-08-18T02:49:30;28.17;;;21.17;;
53521;SDS011;39398;48.382;9.802;2022-08-18T02:50:32;24.52;;;20.17;;
53521;SDS011;39398;48.382;9.802;2022-08-18T02:51:33;23.92;;;19.95;;
53521;SDS011;39398;48.382;9.802;2022-08-18T02:52:35;30.55;;;21.80;;
53521;SDS011;39398;48.382;9.802;2022-08-18T02:53:41;32.08;;;21.65;;
53521;SDS011;39398;48.382;9.802;2022-08-18T02:54:44;23.50;;;19.25;;
53521;SDS011;39398;48.382;9.802;2022-08-18T02:55:46;24.50;;;19.35;;
53521;SDS011;39398;48.382;9.802;2022-08-18T02:56:48;23.27;;;18.92;;
53521;SDS011;39398;48.382;9.802;2022-08-18T02:57:52;24.65;;;19.40;;
53521;SDS011;39398;48.382;9.802;2022-08-18T02:58:55;21.92;;;18.67;;
53521;SDS011;39398;48.382;9.802;2022-08-18T02:59:58;21.25;;;17.50;;
53521;SDS011;39398;48.382;9.802;2022-08-18T03:01:01;21.85;;;18.25;;
53521;SDS011;39398;48.382;9.802;2022-08-18T03:02:03;23.08;;;18.05;;
53521;SDS011;39398;48.382;9.802;2022-08-18T03:03:05;26.88;;;19.05;;
53521;SDS011;39398;48.382;9.802;2022-08-18T03:04:08;23.33;;;18.75;;
53521;SDS011;39398;48.382;9.802;2022-08-18T03:05:13;25.05;;;19.30;;
53521;SDS011;39398;48.382;9.802;2022-08-18T03:06:15;22.05;;;17.83;;
53521;SDS011;39398;48.382;9.802;2022-08-18T03:07:17;22.80;;;19.10;;
53521;SDS011;39398;48.382;9.802;2022-08-18T03:08:18;23.35;;;19.00;;
53521;SDS011;39398;48.382;9.802;2022-08-18T03:09:20;28.63;;;20.10;;
53521;SDS011;39398;48.382;9.802;2022-08-18T03:10:22;32.22;;;20.58;;
53521;SDS011;39398;48.382;9.802;2022-08-18T03:12:35;28.77;;;18.85;;
53521;SDS011;39398;48.382;9.802;2022-08-18T03:13:38;35.15;;;21.63;;
53521;SDS011;39398;48.382;9.802;2022-08-18T03:14:39;48.92;;;24.52;;
53521;SDS011;39398;48.382;9.802;2022-08-18T03:15:41;85.53;;;28.77;;
53521;SDS011;39398;48.382;9.802;2022-08-18T03:16:44;94.30;;;29.70;;
53521;SDS011;39398;48.382;9.802;2022-08-18T03:17:55;105.45;;;33.25;;
53521;SDS011;39398;48.382;9.802;2022-08-18T03:18:56;62.28;;;31.42;;
53521;SDS011;39398;48.382;9.802;2022-08-18T03:19:58;75.43;;;32.47;;
53521;SDS011;39398;48.382;9.802;2022-08-18T03:21:06;87.68;;;35.92;;
53521;SDS011;39398;48.382;9.802;2022-08-18T03:22:09;83.88;;;35.50;;
53521;SDS011;39398;48.382;9.802;2022-08-18T03:23:29;106.43;;;36.45;;
53521;SDS011;39398;48.382;9.802;2022-08-18T03:24:31;97.85;;;33.17;;
53521;SDS011;39398;48.382;9.802;2022-08-18T03:25:33;55.05;;;30.17;;
53521;SDS011;39398;48.382;9.802;2022-08-18T03:26:34;65.40;;;31.85;;
53521;SDS011;39398;48.382;9.802;2022-08-18T03:27:40;49.83;;;29.05;;
53521;SDS011;39398;48.382;9.802;2022-08-18T03:28:44;45.40;;;26.10;;
53521;SDS011;39398;48.382;9.802;2022-08-18T03:29:47;84.03;;;31.30;;
53521;SDS011;39398;48.382;9.802;2022-08-18T03:30:49;132.18;;;36.85;;
53521;SDS011;39398;48.382;9.802;2022-08-18T03:31:50;60.03;;;34.15;;
53521;SDS011;39398;48.382;9.802;2022-08-18T03:32:52;94.07;;;35.55;;
53521;SDS011;39398;48.382;9.802;2022-08-18T03:33:54;64.05;;;33.10;;
53521;SDS011;39398;48.382;9.802;2022-08-18T03:35:00;55.95;;;32.95;;
53521;SDS011;39398;48.382;9.802;2022-08-18T03:36:02;49.65;;;32.80;;
53521;SDS011;39398;48.382;9.802;2022-08-18T03:37:05;50.53;;;32.35;;
53521;SDS011;39398;48.382;9.802;2022-08-18T03:38:06;51.85;;;31.30;;
53521;SDS011;39398;48.382;9.802;2022-08-18T03:39:08;44.90;;;30.20;;
53521;SDS011;39398;48.382;9.802;2022-08-18T03:40:11;47.15;;;28.63;;
53521;SDS011;39398;48.382;9.802;2022-08-18T03:41:14;45.20;;;29.10;;
53521;SDS011;39398;48.382;9.802;2022-08-18T03:42:37;109.75;;;32.33;;
53521;SDS011;39398;48.382;9.802;2022-08-18T03:43:38;163.00;;;38.03;;
53521;SDS011;39398;48.382;9.802;2022-08-18T03:44:53;192.50;;;37.30;;
53521;SDS011;39398;48.382;9.802;2022-08-18T03:45:54;116.63;;;33.33;;
53521;SDS011;39398;48.382;9.802;2022-08-18T03:46:59;89.07;;;32.08;;
53521;SDS011;39398;48.382;9.802;2022-08-18T03:48:01;365.33;;;40.80;;
53521;SDS011;39398;48.382;9.802;2022-08-18T03:49:03;346.98;;;37.65;;
53521;SDS011;39398;48.382;9.802;2022-08-18T03:50:05;224.52;;;33.30;;
53521;SDS011;39398;48.382;9.802;2022-08-18T03:51:15;443.95;;;40.60;;
53521;SDS011;39398;48.382;9.802;2022-08-18T03:52:19;522.95;;;43.70;;
53521;SDS011;39398;48.382;9.802;2022-08-18T03:53:20;314.25;;;36.38;;
53521;SDS011;39398;48.382;9.802;2022-08-18T03:54:22;537.10;;;44.13;;
53521;SDS011;39398;48.382;9.802;2022-08-18T03:55:24;661.70;;;48.97;;
53521;SDS011;39398;48.382;9.802;2022-08-18T03:56:27;546.50;;;45.72;;
53521;SDS011;39398;48.382;9.802;2022-08-18T03:57:31;452.67;;;40.28;;
53521;SDS011;39398;48.382;9.802;2022-08-18T03:58:39;402.45;;;38.53;;
53521;SDS011;39398;48.382;9.802;2022-08-18T03:59:40;673.58;;;52.45;;
53521;SDS011;39398;48.382;9.802;2022-08-18T04:00:43;690.28;;;52.25;;
53521;SDS011;39398;48.382;9.802;2022-08-18T04:01:45;675.72;;;52.08;;
53521;SDS011;39398;48.382;9.802;2022-08-18T04:02:48;791.88;;;55.85;;
53521;SDS011;39398;48.382;9.802;2022-08-18T04:03:51;754.53;;;47.00;;
53521;SDS011;39398;48.382;9.802;2022-08-18T04:04:54;758.78;;;58.05;;
53521;SDS011;39398;48.382;9.802;2022-08-18T04:05:56;763.72;;;55.97;;
53521;SDS011;39398;48.382;9.802;2022-08-18T04:06:58;469.55;;;40.03;;
53521;SDS011;39398;48.382;9.802;2022-08-18T04:08:03;731.33;;;52.65;;
53521;SDS011;39398;48.382;9.802;2022-08-18T04:09:05;876.97;;;57.92;;
53521;SDS011;39398;48.382;9.802;2022-08-18T04:10:10;918.67;;;58.45;;
53521;SDS011;39398;48.382;9.802;2022-08-18T04:11:20;845.47;;;57.38;;
53521;SDS011;39398;48.382;9.802;2022-08-18T04:12:22;804.67;;;52.22;;
53521;SDS011;39398;48.382;9.802;2022-08-18T04:13:23;733.63;;;51.00;;
53521;SDS011;39398;48.382;9.802;2022-08-18T04:14:25;726.25;;;51.83;;
53521;SDS011;39398;48.382;9.802;2022-08-18T04:15:27;815.53;;;55.92;;
53521;SDS011;39398;48.382;9.802;2022-08-18T04:16:30;806.20;;;52.85;;
53521;SDS011;39398;48.382;9.802;2022-08-18T04:17:32;811.10;;;55.08;;
53521;SDS011;39398;48.382;9.802;2022-08-18T04:18:36;830.22;;;55.00;;
53521;SDS011;39398;48.382;9.802;2022-08-18T04:19:38;709.13;;;51.97;;
53521;SDS011;39398;48.382;9.802;2022-08-18T04:20:39;604.47;;;51.47;;
53521;SDS011;39398;48.382;9.802;2022-08-18T04:22:00;286.15;;;39.10;;
53521;SDS011;39398;48.382;9.802;2022-08-18T04:23:02;420.65;;;45.28;;
53521;SDS011;39398;48.382;9.802;2022-08-18T04:24:04;613.40;;;50.88;;
53521;SDS011;39398;48.382;9.802;2022-08-18T04:25:07;806.63;;;61.03;;
53521;SDS011;39398;48.382;9.802;2022-08-18T04:26:09;857.33;;;59.60;;
53521;SDS011;39398;48.382;9.802;2022-08-18T04:27:20;869.00;;;62.25;;
53521;SDS011;39398;48.382;9.802;2022-08-18T04:28:22;687.40;;;54.78;;
53521;SDS011;39398;48.382;9.802;2022-08-18T04:29:23;702.13;;;54.10;;
53521;SDS011;39398;48.382;9.802;2022-08-18T04:30:25;805.47;;;59.92;;
53521;SDS011;39398;48.382;9.802;2022-08-18T04:31:27;868.72;;;66.40;;
53521;SDS011;39398;48.382;9.802;2022-08-18T04:32:31;753.05;;;59.72;;
53521;SDS011;39398;48.382;9.802;2022-08-18T04:33:32;889.20;;;66.07;;
53521;SDS011;39398;48.382;9.802;2022-08-18T04:34:34;816.78;;;61.78;;
53521;SDS011;39398;48.382;9.802;2022-08-18T04:35:36;965.80;;;72.05;;
53521;SDS011;39398;48.382;9.802;2022-08-18T04:36:38;1020.53;;;72.28;;
53521;SDS011;39398;48.382;9.802;2022-08-18T04:37:39;870.35;;;64.93;;
53521;SDS011;39398;48.382;9.802;2022-08-18T04:38:42;797.55;;;65.13;;
53521;SDS011;39398;48.382;9.802;2022-08-18T04:39:44;745.28;;;62.10;;
53521;SDS011;39398;48.382;9.802;2022-08-18T04:40:45;724.40;;;65.45;;
53521;SDS011;39398;48.382;9.802;2022-08-18T04:41:47;588.40;;;60.15;;
53521;SDS011;39398;48.382;9.802;2022-08-18T04:42:49;432.83;;;53.95;;
53521;SDS011;39398;48.382;9.802;2022-08-18T04:43:51;375.85;;;51.92;;
53521;SDS011;39398;48.382;9.802;2022-08-18T04:44:53;221.15;;;45.65;;
53521;SDS011;39398;48.382;9.802;2022-08-18T04:45:54;318.40;;;50.67;;
53521;SDS011;39398;48.382;9.802;2022-08-18T04:46:56;279.60;;;48.72;;
53521;SDS011;39398;48.382;9.802;2022-08-18T04:47:59;216.00;;;46.65;;
53521;SDS011;39398;48.382;9.802;2022-08-18T04:49:00;191.95;;;47.45;;
53521;SDS011;39398;48.382;9.802;2022-08-18T04:50:02;129.80;;;42.28;;
53521;SDS011;39398;48.382;9.802;2022-08-18T04:51:04;125.75;;;41.65;;
53521;SDS011;39398;48.382;9.802;2022-08-18T04:52:07;139.75;;;42.42;;
53521;SDS011;39398;48.382;9.802;2022-08-18T04:53:28;172.02;;;43.90;;
53521;SDS011;39398;48.382;9.802;2022-08-18T04:54:30;167.13;;;41.83;;
53521;SDS011;39398;48.382;9.802;2022-08-18T04:55:32;166.32;;;39.55;;
53521;SDS011;39398;48.382;9.802;2022-08-18T04:56:35;169.95;;;40.95;;
53521;SDS011;39398;48.382;9.802;2022-08-18T04:57:38;165.23;;;41.28;;
53521;SDS011;39398;48.382;9.802;2022-08-18T04:58:40;154.63;;;38.88;;
53521;SDS011;39398;48.382;9.802;2022-08-18T04:59:42;156.32;;;39.88;;
53521;SDS011;39398;48.382;9.802;2022-08-18T05:00:44;124.32;;;37.67;;
53521;SDS011;39398;48.382;9.802;2022-08-18T05:01:46;118.13;;;36.25;;
53521;SDS011;39398;48.382;9.802;2022-08-18T05:02:48;108.80;;;37.63;;
53521;SDS011;39398;48.382;9.802;2022-08-18T05:03:52;123.95;;;37.78;;
53521;SDS011;39398;48.382;9.802;2022-08-18T05:04:54;132.38;;;36.92;;
53521;SDS011;39398;48.382;9.802;2022-08-18T05:05:56;111.30;;;34.25;;
53521;SDS011;39398;48.382;9.802;2022-08-18T05:06:58;149.25;;;35.72;;
53521;SDS011;39398;48.382;9.802;2022-08-18T05:08:00;146.60;;;35.05;;
53521;SDS011;39398;48.382;9.802;2022-08-18T05:09:04;162.13;;;36.45;;
53521;SDS011;39398;48.382;9.802;2022-08-18T05:10:07;140.55;;;33.88;;
53521;SDS011;39398;48.382;9.802;2022-08-18T05:11:09;124.90;;;32.95;;
53521;SDS011;39398;48.382;9.802;2022-08-18T05:12:11;142.88;;;34.67;;
53521;SDS011;39398;48.382;9.802;2022-08-18T05:13:14;129.57;;;34.00;;
53521;SDS011;39398;48.382;9.802;2022-08-18T05:14:16;167.48;;;36.22;;
53521;SDS011;39398;48.382;9.802;2022-08-18T05:15:18;110.50;;;32.20;;
53521;SDS011;39398;48.382;9.802;2022-08-18T05:16:19;104.47;;;30.77;;
53521;SDS011;39398;48.382;9.802;2022-08-18T05:17:28;128.30;;;33.33;;
53521;SDS011;39398;48.382;9.802;2022-08-18T05:18:32;92.75;;;31.80;;
53521;SDS011;39398;48.382;9.802;2022-08-18T05:19:36;84.28;;;31.08;;
53521;SDS011;39398;48.382;9.802;2022-08-18T05:20:44;59.58;;;28.25;;
53521;SDS011;39398;48.382;9.802;2022-08-18T05:21:46;60.35;;;26.73;;
53521;SDS011;39398;48.382;9.802;2022-08-18T05:22:51;55.97;;;26.15;;
53521;SDS011;39398;48.382;9.802;2022-08-18T05:23:52;45.15;;;25.70;;
53521;SDS011;39398;48.382;9.802;2022-08-18T05:24:54;41.42;;;23.13;;
53521;SDS011;39398;48.382;9.802;2022-08-18T05:25:56;42.80;;;23.92;;
53521;SDS011;39398;48.382;9.802;2022-08-18T05:26:58;39.97;;;23.08;;
53521;SDS011;39398;48.382;9.802;2022-08-18T05:27:59;37.33;;;23.27;;
53521;SDS011;39398;48.382;9.802;2022-08-18T05:29:01;34.83;;;22.45;;
53521;SDS011;39398;48.382;9.802;2022-08-18T05:30:18;30.13;;;20.27;;
53521;SDS011;39398;48.382;9.802;2022-08-18T05:31:20;26.13;;;19.05;;
53521;SDS011;39398;48.382;9.802;2022-08-18T05:32:23;24.65;;;18.73;;
53521;SDS011;39398;48.382;9.802;2022-08-18T05:33:45;28.73;;;20.13;;
53521;SDS011;39398;48.382;9.802;2022-08-18T05:34:49;32.15;;;20.80;;
53521;SDS011;39398;48.382;9.802;2022-08-18T05:35:58;31.02;;;21.15;;
53521;SDS011;39398;48.382;9.802;2022-08-18T05:37:08;32.10;;;20.38;;
53521;SDS011;39398;48.382;9.802;2022-08-18T05:38:25;36.03;;;21.42;;
53521;SDS011;39398;48.382;9.802;2022-08-18T05:39:37;31.48;;;20.20;;
53521;SDS011;39398;48.382;9.802;2022-08-18T05:40:45;34.38;;;21.63;;
53521;SDS011;39398;48.382;9.802;2022-08-18T05:42:01;35.50;;;20.60;;
53521;SDS011;39398;48.382;9.802;2022-08-18T05:43:05;38.22;;;22.52;;
53521;SDS011;39398;48.382;9.802;2022-08-18T05:44:11;40.35;;;22.25;;
53521;SDS011;39398;48.382;9.802;2022-08-18T05:45:16;35.22;;;21.27;;
53521;SDS011;39398;48.382;9.802;2022-08-18T05:46:20;32.70;;;21.13;;
53521;SDS011;39398;48.382;9.802;2022-08-18T05:47:30;29.33;;;18.48;;
53521;SDS011;39398;48.382;9.802;2022-08-18T05:48:33;36.08;;;20.52;;
53521;SDS011;39398;48.382;9.802;2022-08-18T05:49:37;24.73;;;17.83;;
53521;SDS011;39398;48.382;9.802;2022-08-18T05:50:42;27.15;;;17.48;;
53521;SDS011;39398;48.382;9.802;2022-08-18T05:51:44;27.77;;;17.98;;
53521;SDS011;39398;48.382;9.802;2022-08-18T05:52:50;23.48;;;17.08;;
53521;SDS011;39398;48.382;9.802;2022-08-18T05:53:54;25.38;;;17.30;;
53521;SDS011;39398;48.382;9.802;2022-08-18T05:55:03;37.50;;;22.00;;
53521;SDS011;39398;48.382;9.802;2022-08-18T05:56:07;37.67;;;22.98;;
53521;SDS011;39398;48.382;9.802;2022-08-18T05:57:12;34.63;;;22.00;;
53521;SDS011;39398;48.382;9.802;2022-08-18T05:58:17;35.28;;;22.05;;
53521;SDS011;39398;48.382;9.802;2022-08-18T05:59:22;31.20;;;20.50;;
53521;SDS011;39398;48.382;9.802;2022-08-18T06:00:26;26.38;;;19.23;;
53521;SDS011;39398;48.382;9.802;2022-08-18T06:01:31;29.60;;;20.60;;
53521;SDS011;39398;48.382;9.802;2022-08-18T06:02:41;21.52;;;13.65;;
53521;SDS011;39398;48.382;9.802;2022-08-18T06:03:47;23.42;;;16.02;;
53521;SDS011;39398;48.382;9.802;2022-08-18T06:04:52;22.15;;;16.92;;
53521;SDS011;39398;48.382;9.802;2022-08-18T06:05:59;22.33;;;16.67;;
53521;SDS011;39398;48.382;9.802;2022-08-18T06:07:03;23.00;;;17.25;;
53521;SDS011;39398;48.382;9.802;2022-08-18T06:08:10;28.88;;;19.70;;
53521;SDS011;39398;48.382;9.802;2022-08-18T06:09:15;33.20;;;20.45;;
53521;SDS011;39398;48.382;9.802;2022-08-18T06:10:21;29.77;;;20.05;;
53521;SDS011;39398;48.382;9.802;2022-08-18T06:11:23;27.92;;;19.23;;
53521;SDS011;39398;48.382;9.802;2022-08-18T06:12:33;28.10;;;19.30;;